Nearby METAR Reports

 

KALB - Albany, New York, USA
Distance from station: E 47mi, 75km
Updated: Sun, 22-Sep-2019 2:51am EDT
Clear
Clear
 Wind from calm
Wind: Calm
Temperature: 54°F , 12°C
Dew Point: 52°F , 11°C
Humidity: 94%
Barometer: 30.16 inHg , 1021.3 hPa
Clouds: Clear
Visibility: 10 miles , 16 km
2019/09/22 06:51 KALB 220651Z 00000KT 10SM CLR 12/11 A3016 RMK AO2 SLP213 T01220106
KSLK - Saranac Lake, New York, USA
Distance from station: N 110mi, 177km
Updated: Sun, 22-Sep-2019 2:51am EDT
Clear
Clear
 Wind from calm
Wind: Calm
Temperature: 43°F , 6°C
Dew Point: 41°F , 5°C
Humidity: 93%
Barometer: 30.16 inHg , 1021.3 hPa
Clouds: Clear
Visibility: 7 miles , 11 km
2019/09/22 06:51 KSLK 220651Z AUTO 00000KT 7SM CLR 06/05 A3016 RMK AO2 SLP210 T00610050
 
KSYR - Syracuse, New York, USA
Distance from station: W 73mi, 117km
Updated: Sun, 22-Sep-2019 2:54am EDT
Few Clouds
Few Clouds
 Wind from E
Wind: E 3 mph , 6 km/h
Temperature: 57°F , 14°C
Dew Point: 54°F , 12°C
Humidity: 88%
Barometer: 30.12 inHg , 1020 hPa
Clouds: Few Clouds
Visibility: 10 miles , 16 km
Cloud details: Few Clouds 25000 ft
2019/09/22 06:54 KSYR 220654Z 08003KT 10SM FEW250 14/12 A3012 RMK AO2 SLP195 T01440122
KBGM - Binghamton, New York, USA
Distance from station: SW 78mi, 126km
Updated: Sun, 22-Sep-2019 2:53am EDT
Clear
Clear
 Wind from S
Wind: S 5 mph , 7 km/h
Temperature: 59°F , 15°C
Dew Point: 54°F , 12°C
Humidity: 82%
Barometer: 30.19 inHg , 1022.4 hPa
Clouds: Clear
Visibility: 10 miles , 16 km
2019/09/22 06:53 KBGM 220653Z AUTO 19004KT 10SM CLR 15/12 A3019 RMK AO2 SLP214 T01500117
 
KRME - Rome, New York, USA
Distance from station: WNW 43mi, 69km
Updated: Sun, 22-Sep-2019 2:53am EDT
Clear
Clear
 Wind from ESE
Wind: ESE 5 mph , 7 km/h
Temperature: 55°F , 13°C
Dew Point: 54°F , 12°C
Humidity: 94%
Barometer: 30.17 inHg , 1021.7 hPa
Clouds: Clear
Visibility: 10 miles , 16 km
2019/09/22 06:53 KRME 220653Z AUTO 11004KT 10SM CLR 13/12 A3017 RMK AO2 SLP214 T01280122
KJFK - New York, New York, USA
Distance from station: SSE 159mi, 256km
Updated: Sun, 22-Sep-2019 2:51am EDT
Few Clouds
Few Clouds
 Wind from SW
Wind: SW 6 mph , 9 km/h
Temperature: 64°F , 18°C
Dew Point: 63°F , 17°C
Humidity: 94%
Barometer: 30.18 inHg , 1022 hPa
Clouds: Few Clouds
Visibility: 10 miles , 16 km
Cloud details: Few Clouds 25000 ft
2019/09/22 06:51 KJFK 220651Z 22005KT 10SM FEW250 18/17 A3018 RMK AO2 SLP221 T01780172 CHINO W $
 
KROC - Rochester, New York, USA
Distance from station: W 150mi, 242km
Updated: Sun, 22-Sep-2019 2:54am EDT
Partly cloudy
Partly cloudy
 Wind from SW
Wind: SW 8 mph , 13 km/h
Temperature: 66°F , 19°C
Dew Point: 61°F , 16°C
Humidity: 83%
Barometer: 30.11 inHg , 1019.6 hPa
Clouds: Partly cloudy
Visibility: 10 miles , 16 km
Cloud details: Partly cloudy 25000 ft
2019/09/22 06:54 KROC 220654Z 23007KT 10SM SCT250 19/16 A3011 RMK AO2 SLP197 T01890156
KART - Watertown, New York, USA
Distance from station: NNW 103mi, 166km
Updated: Sun, 22-Sep-2019 2:56am EDT
Clear
Clear
 Wind from varies
Wind: varies 3 mph , 6 km/h
Temperature: 64°F , 18°C
Dew Point: 54°F , 12°C
Humidity: 68%
Barometer: 30.09 inHg , 1019 hPa
Clouds: Clear
Visibility: 10 miles , 16 km
2019/09/22 06:56 KART 220656Z AUTO VRB03KT 10SM CLR 18/12 A3009 RMK AO2 SLP184 T01830117
 
KELM - Elmira-Corning, New York, USA
Distance from station: SSW 121mi, 195km
Updated: Sun, 22-Sep-2019 2:53am EDT
Mist, Clear
Mist, Clear
 Wind from calm
Wind: Calm
Temperature: 54°F , 12°C
Dew Point: 54°F , 12°C
Humidity: 100%
Barometer: 30.17 inHg , 1021.7 hPa
Summary: Mist
Clouds: Clear
Visibility: 1 1/2 miles , 2.4 km
2019/09/22 06:53 KELM 220653Z AUTO 00000KT 1 1/2SM BR CLR 12/12 A3017 RMK AO2 SLP214 T01170117
KJHW - Jamestown, New York, USA
Distance from station: SW 238mi, 383km
Updated: Sun, 22-Sep-2019 2:56am EDT
Clear
Clear
 Wind from SSW
Wind: SSW 7 mph , 11 km/h
Temperature: 64°F , 18°C
Dew Point: 64°F , 18°C
Humidity: 100%
Barometer: 30.18 inHg , 1022 hPa
Clouds: Clear
Visibility: 8 miles , 13 km
2019/09/22 06:56 KJHW 220656Z AUTO 20006KT 8SM CLR 18/18 A3018 RMK AO2 SLP214 T01830178
 
KMSS - Massena, New York, USA
Distance from station: N 141mi, 232km
Updated: Sun, 22-Sep-2019 2:53am EDT
Clear
Clear
 Wind from calm
Wind: Calm
Temperature: 57°F , 14°C
Dew Point: 55°F , 13°C
Humidity: 94%
Barometer: 30.09 inHg , 1019 hPa
Clouds: Clear
Visibility: 10 miles , 16 km
2019/09/22 06:53 KMSS 220653Z AUTO 00000KT 10SM CLR 14/13 A3009 RMK AO2 SLP187 T01440128
KBUF - Buffalo, New York, USA
Distance from station: W 204mi, 328km
Updated: Sun, 22-Sep-2019 2:54am EDT
Few Clouds
Few Clouds
 Wind from SSE
Wind: SSE 5 mph , 7 km/h
Temperature: 68°F , 20°C
Dew Point: 63°F , 17°C
Humidity: 83%
Barometer: 30.10 inHg , 1019.3 hPa
Clouds: Few Clouds
Visibility: 10 miles , 16 km
Cloud details: Few Clouds 4100 ft
Few Clouds 28000 ft
2019/09/22 06:54 KBUF 220654Z 15004KT 10SM FEW041 FEW280 20/17 A3010 RMK AO2 SLP190 T02000172